Time;durP1;ratioP1;P1;durP2;ratioP2;P2;SDS_P1;SDS_P2;PMS_P1;PMS_P2;Temp;Humidity;BMP_temperature;BMP_pressure;BME280_temperature;BME280_humidity;BME280_pressure;Samples;Min_cycle;Max_cycle;Signal;HPM_P1;HPM_P2
2021/07/31 00:01:49;;;;;;;;;;;;;;;16.07;72.92;100419.91;5036821;28;19925;-52
2021/07/31 00:04:16;;;;;;;;;;;;;;;15.97;73.47;100423.44;5054234;28;19921;-50
2021/07/31 00:06:43;;;;;;;;;;;;;;;15.98;73.28;100424.25;5053953;28;19963;-50
2021/07/31 00:09:09;;;;;;;;;;;;;;;15.96;73.80;100418.28;5053019;28;20019;-46
2021/07/31 00:11:36;;;;;;;;;;;;;;;15.93;73.80;100411.44;5054145;28;20367;-47
2021/07/31 00:14:03;;;;;;;;;;;;;;;15.88;74.09;100413.69;5053636;28;19920;-59
2021/07/31 00:16:30;;;;;;;;;;;;;;;15.98;74.32;100403.03;5054234;28;19924;-58
2021/07/31 00:18:56;;;;;;;;;;;;;;;15.99;73.91;100412.66;5054104;28;19927;-50
2021/07/31 00:21:23;;;;;;;;;;;;;;;15.89;74.63;100420.66;5054093;28;19974;-58
2021/07/31 00:23:50;;;;;;;;;;;;;;;15.90;74.52;100409.09;5052652;28;19920;-59
2021/07/31 00:26:17;;;;;;;;;;;;;;;15.89;74.64;100399.44;5052532;28;19920;-48
2021/07/31 00:28:43;;;;;;;;;;;;;;;15.91;75.06;100405.47;5053789;28;19921;-58
2021/07/31 00:31:10;;;;;;;;;;;;;;;15.91;74.90;100404.59;5053220;28;20327;-59
2021/07/31 00:33:36;;;;;;;;;;;;;;;15.92;75.02;100407.09;5053512;28;19920;-50
2021/07/31 00:36:03;;;;;;;;;;;;;;;15.97;75.31;100410.16;5053534;28;20371;-49
2021/07/31 00:38:30;;;;;;;;;;;;;;;15.94;75.01;100396.34;5053564;28;20372;-48
2021/07/31 00:40:57;;;;;;;;;;;;;;;15.97;75.25;100396.91;5053341;28;19966;-58
2021/07/31 00:43:23;;;;;;;;;;;;;;;16.00;74.91;100393.13;5053602;28;19920;-58
2021/07/31 00:45:50;;;;;;;;;;;;;;;15.98;75.07;100408.34;5053570;28;20382;-50
2021/07/31 00:48:17;;;;;;;;;;;;;;;16.08;75.46;100397.72;5053385;28;19962;-59
2021/07/31 00:50:44;;;;;;;;;;;;;;;16.00;75.08;100401.91;5052217;28;20303;-47
2021/07/31 00:53:10;;;;;;;;;;;;;;;15.98;75.65;100390.63;5052054;28;19958;-59
2021/07/31 00:55:37;;;;;;;;;;;;;;;16.00;75.68;100396.59;5053484;28;19921;-59
2021/07/31 00:58:04;;;;;;;;;;;;;;;16.08;75.18;100390.59;5052289;28;19920;-59
2021/07/31 01:00:31;;;;;;;;;;;;;;;16.12;75.11;100399.91;5052063;28;19920;-59
2021/07/31 01:02:57;;;;;;;;;;;;;;;16.09;75.71;100392.25;5052137;28;20398;-59
2021/07/31 01:05:24;;;;;;;;;;;;;;;16.10;75.81;100378.03;5053289;28;19931;-50
2021/07/31 01:07:51;;;;;;;;;;;;;;;16.08;75.97;100400.38;5053174;28;20354;-59
2021/07/31 01:10:18;;;;;;;;;;;;;;;16.07;76.06;100401.34;5051897;28;20355;-49
2021/07/31 01:12:44;;;;;;;;;;;;;;;16.05;75.92;100397.00;5051957;28;19921;-59
2021/07/31 01:15:11;;;;;;;;;;;;;;;16.18;75.73;100394.03;5052755;28;19921;-47
2021/07/31 01:17:38;;;;;;;;;;;;;;;16.08;75.93;100401.19;5051321;28;20395;-59
2021/07/31 01:20:05;;;;;;;;;;;;;;;16.14;75.82;100397.09;5051575;28;19971;-49
2021/07/31 01:22:31;;;;;;;;;;;;;;;16.08;76.52;100403.03;5052801;28;19974;-59
2021/07/31 01:24:58;;;;;;;;;;;;;;;16.01;76.58;100400.94;5052540;28;20311;-49
2021/07/31 01:27:25;;;;;;;;;;;;;;;16.12;76.21;100396.44;5051855;28;19935;-50
2021/07/31 01:29:51;;;;;;;;;;;;;;;16.17;76.24;100396.81;5052486;28;19920;-50
2021/07/31 01:32:18;;;;;;;;;;;;;;;16.12;76.47;100397.25;5051489;28;19920;-59
2021/07/31 01:34:45;;;;;;;;;;;;;;;16.23;76.38;100394.41;5052622;28;19927;-49
2021/07/31 01:37:11;;;;;;;;;;;;;;;16.11;76.63;100392.94;5052510;28;19943;-46
2021/07/31 01:39:38;;;;;;;;;;;;;;;16.13;77.00;100388.34;5052735;28;19921;-46
2021/07/31 01:42:05;;;;;;;;;;;;;;;16.08;77.37;100393.22;5051621;28;19928;-59
2021/07/31 01:44:31;;;;;;;;;;;;;;;16.15;77.12;100396.13;5035002;28;20284;-58
2021/07/31 01:46:58;;;;;;;;;;;;;;;16.21;76.83;100393.72;5052884;28;20368;-59
2021/07/31 01:49:25;;;;;;;;;;;;;;;16.14;77.06;100392.66;5052517;28;19925;-59
2021/07/31 01:51:51;;;;;;;;;;;;;;;16.22;77.29;100395.41;5052608;28;19971;-49
2021/07/31 01:54:18;;;;;;;;;;;;;;;16.13;77.69;100398.09;5052612;28;19967;-48
2021/07/31 01:56:47;;;;;;;;;;;;;;;16.09;78.17;100392.25;5051099;28;19920;-48
2021/07/31 01:59:14;;;;;;;;;;;;;;;16.18;77.34;100383.44;5052240;28;20011;-47
2021/07/31 02:01:41;;;;;;;;;;;;;;;16.08;77.47;100387.94;5052135;28;19974;-47
2021/07/31 02:04:08;;;;;;;;;;;;;;;16.16;77.63;100380.06;5051170;28;20485;-45
2021/07/31 02:06:35;;;;;;;;;;;;;;;16.10;77.42;100375.38;5052118;28;19920;-59
2021/07/31 02:09:02;;;;;;;;;;;;;;;16.07;77.93;100374.81;5052354;28;20364;-43
2021/07/31 02:11:29;;;;;;;;;;;;;;;16.03;79.85;100368.97;5051919;28;19924;-45
2021/07/31 02:13:55;;;;;;;;;;;;;;;15.94;80.05;100372.50;5052148;28;20331;-45
2021/07/31 02:16:23;;;;;;;;;;;;;;;15.90;79.81;100379.91;5052212;28;20428;-58
2021/07/31 02:18:51;;;;;;;;;;;;;;;15.91;80.12;100378.09;5050660;28;19967;-58
2021/07/31 02:21:18;;;;;;;;;;;;;;;15.91;80.05;100372.78;5051731;28;19925;-58
2021/07/31 02:23:44;;;;;;;;;;;;;;;15.91;79.52;100373.66;5052452;28;19927;-58
2021/07/31 02:26:11;;;;;;;;;;;;;;;15.87;79.36;100364.31;5052107;28;19944;-58
2021/07/31 02:28:37;;;;;;;;;;;;;;;15.87;79.17;100380.22;5052543;28;19927;-58
2021/07/31 02:31:04;;;;;;;;;;;;;;;15.90;79.59;100371.97;5052042;28;19924;-58
2021/07/31 02:33:31;;;;;;;;;;;;;;;15.96;78.44;100379.31;5052261;28;19987;-58
2021/07/31 02:36:02;;;;;;;;;;;;;;;15.88;78.48;100369.47;5052015;28;19951;-58
2021/07/31 02:38:28;;;;;;;;;;;;;;;15.97;77.89;100372.22;5053731;28;19921;-58
2021/07/31 02:40:55;;;;;;;;;;;;;;;16.00;78.11;100367.44;5055830;28;20402;-58
2021/07/31 02:43:22;;;;;;;;;;;;;;;15.98;78.40;100373.88;5054769;28;19970;-58
2021/07/31 02:45:48;;;;;;;;;;;;;;;15.94;78.03;100370.69;5055818;28;19920;-59
2021/07/31 02:48:15;;;;;;;;;;;;;;;15.96;78.24;100373.19;5055798;28;19925;-59
2021/07/31 02:50:41;;;;;;;;;;;;;;;15.97;77.71;100364.25;5055814;28;20421;-59
2021/07/31 02:53:08;;;;;;;;;;;;;;;16.00;78.42;100369.25;5055795;28;20433;-58
2021/07/31 02:55:35;;;;;;;;;;;;;;;15.99;78.03;100364.94;5055533;28;19924;-58
2021/07/31 02:58:01;;;;;;;;;;;;;;;16.00;77.78;100363.97;5054368;28;19932;-58
2021/07/31 03:00:28;;;;;;;;;;;;;;;15.98;77.36;100360.59;5055478;28;20011;-58
2021/07/31 03:02:55;;;;;;;;;;;;;;;15.99;78.25;100364.94;5055496;28;20325;-58
2021/07/31 03:05:22;;;;;;;;;;;;;;;15.98;77.83;100364.13;5055613;28;19928;-58
2021/07/31 03:07:48;;;;;;;;;;;;;;;15.93;78.33;100363.72;5055328;28;19924;-58
2021/07/31 03:10:15;;;;;;;;;;;;;;;16.00;78.02;100353.34;5055190;28;19924;-59
2021/07/31 03:12:42;;;;;;;;;;;;;;;15.92;78.81;100350.59;5055469;28;19928;-59
2021/07/31 03:15:08;;;;;;;;;;;;;;;15.95;78.83;100350.31;5055373;28;19928;-58
2021/07/31 03:17:35;;;;;;;;;;;;;;;15.96;78.78;100342.19;5055361;28;19924;-59
2021/07/31 03:20:03;;;;;;;;;;;;;;;15.93;79.44;100342.50;5055399;28;20394;-59
2021/07/31 03:22:29;;;;;;;;;;;;;;;15.94;80.03;100346.81;5054971;28;19927;-58
2021/07/31 03:24:56;;;;;;;;;;;;;;;15.82;80.95;100355.94;5055086;28;19974;-58
2021/07/31 03:27:23;;;;;;;;;;;;;;;15.76;82.68;100348.53;5055351;28;19920;-57
2021/07/31 03:29:49;;;;;;;;;;;;;;;15.79;82.82;100338.50;5054958;28;19998;-57
2021/07/31 03:32:16;;;;;;;;;;;;;;;15.70;82.70;100345.47;5054937;28;20383;-57
2021/07/31 03:34:43;;;;;;;;;;;;;;;15.53;83.49;100351.56;5055188;28;20330;-57
2021/07/31 03:37:10;;;;;;;;;;;;;;;15.46;84.36;100353.09;5053663;28;19928;-57
2021/07/31 03:39:36;;;;;;;;;;;;;;;15.51;84.70;100350.84;5055016;28;20398;-57
2021/07/31 03:42:03;;;;;;;;;;;;;;;15.52;85.23;100355.19;5055039;28;19920;-57
2021/07/31 03:44:29;;;;;;;;;;;;;;;15.42;85.66;100349.91;5055071;28;19921;-57
2021/07/31 03:46:56;;;;;;;;;;;;;;;15.37;86.27;100355.63;5054988;28;19947;-57
2021/07/31 03:49:23;;;;;;;;;;;;;;;15.31;86.75;100356.22;5054245;28;19921;-57
2021/07/31 03:51:52;;;;;;;;;;;;;;;15.29;87.63;100366.09;5055130;28;19924;-58
2021/07/31 03:54:18;;;;;;;;;;;;;;;15.32;87.63;100362.34;5053623;28;19920;-58
2021/07/31 03:56:45;;;;;;;;;;;;;;;15.35;87.77;100376.16;5054795;28;19920;-57
2021/07/31 03:59:12;;;;;;;;;;;;;;;15.35;87.18;100381.44;5054685;28;19983;-51
2021/07/31 04:01:38;;;;;;;;;;;;;;;15.33;89.03;100380.72;5054332;28;19921;-50
2021/07/31 04:04:05;;;;;;;;;;;;;;;15.38;88.74;100412.94;5054680;28;19924;-48
2021/07/31 04:06:32;;;;;;;;;;;;;;;15.35;88.49;100402.63;5054405;28;19920;-47
2021/07/31 04:08:58;;;;;;;;;;;;;;;15.11;89.94;100396.94;5036451;28;19921;-49
2021/07/31 04:11:25;;;;;;;;;;;;;;;15.20;88.91;100399.59;5054539;28;19978;-58
2021/07/31 04:13:54;;;;;;;;;;;;;;;15.18;89.07;100403.34;5053272;28;19924;-58
2021/07/31 04:16:21;;;;;;;;;;;;;;;15.17;88.97;100405.19;5054218;28;19921;-58
2021/07/31 04:18:48;;;;;;;;;;;;;;;15.18;89.68;100406.81;5052742;28;20011;-58
2021/07/31 04:21:15;;;;;;;;;;;;;;;15.27;88.89;100409.59;5053763;28;19928;-59
2021/07/31 04:23:41;;;;;;;;;;;;;;;15.23;89.49;100409.06;5054051;28;19982;-58
2021/07/31 04:26:12;;;;;;;;;;;;;;;15.23;89.20;100405.56;5036754;28;19921;-58
2021/07/31 04:28:38;;;;;;;;;;;;;;;15.28;88.80;100406.81;5052646;28;19921;-44
2021/07/31 04:31:06;;;;;;;;;;;;;;;15.27;89.02;100415.75;5053607;28;19925;-58
2021/07/31 04:33:42;;;;;;;;;;;;;;;15.22;88.95;100420.63;5052589;28;19920;-44
2021/07/31 04:36:09;;;;;;;;;;;;;;;15.28;88.97;100414.75;5052345;28;20387;-49
2021/07/31 04:38:36;;;;;;;;;;;;;;;15.22;88.60;100417.97;5052445;28;19921;-44
2021/07/31 04:41:03;;;;;;;;;;;;;;;15.21;88.90;100421.59;5053638;28;20384;-58
2021/07/31 04:43:31;;;;;;;;;;;;;;;15.18;88.53;100416.59;5053666;28;19921;-58
2021/07/31 04:45:58;;;;;;;;;;;;;;;15.23;88.95;100414.38;5053542;28;19920;-48
2021/07/31 04:48:25;;;;;;;;;;;;;;;15.23;88.79;100430.25;5053535;28;19921;-58
2021/07/31 04:50:58;;;;;;;;;;;;;;;15.13;88.95;100432.06;5053523;28;19920;-59
2021/07/31 04:53:26;;;;;;;;;;;;;;;15.18;88.76;100435.97;5052282;28;20429;-59
2021/07/31 04:55:53;;;;;;;;;;;;;;;15.24;88.76;100437.22;5053602;28;19982;-46
2021/07/31 04:58:19;;;;;;;;;;;;;;;15.14;89.00;100441.69;5052506;28;20307;-59
2021/07/31 05:00:47;;;;;;;;;;;;;;;15.11;89.51;100448.09;5052096;28;19921;-58
2021/07/31 05:03:14;;;;;;;;;;;;;;;15.17;89.13;100452.00;5052777;28;19963;-44
2021/07/31 05:05:44;;;;;;;;;;;;;;;15.28;88.86;100443.06;5051911;28;19942;-51
2021/07/31 05:08:11;;;;;;;;;;;;;;;15.30;88.60;100444.59;5053144;28;19921;-45
2021/07/31 05:10:39;;;;;;;;;;;;;;;15.34;88.42;100439.88;5053326;28;20380;-44
2021/07/31 05:13:06;;;;;;;;;;;;;;;15.29;88.75;100448.22;5052880;28;20291;-45
2021/07/31 05:15:34;;;;;;;;;;;;;;;15.29;88.24;100453.53;5051459;28;19936;-46
2021/07/31 05:18:00;;;;;;;;;;;;;;;15.33;88.27;100452.25;5052697;28;19928;-50
2021/07/31 05:20:27;;;;;;;;;;;;;;;15.36;87.82;100445.84;5051621;28;19924;-49
2021/07/31 05:22:54;;;;;;;;;;;;;;;15.34;88.90;100461.06;5051666;28;20028;-45
2021/07/31 05:25:20;;;;;;;;;;;;;;;15.30;88.62;100459.69;5053072;28;19971;-50
2021/07/31 05:27:47;;;;;;;;;;;;;;;15.36;88.27;100457.28;5051668;28;19925;-47
2021/07/31 05:30:14;;;;;;;;;;;;;;;15.35;88.04;100458.28;5052722;28;19951;-49
2021/07/31 05:32:40;;;;;;;;;;;;;;;15.37;88.71;100464.25;5052629;28;20333;-49
2021/07/31 05:35:07;;;;;;;;;;;;;;;15.30;88.94;100473.75;5052573;28;19920;-49
2021/07/31 05:37:34;;;;;;;;;;;;;;;15.34;88.64;100474.31;5051279;28;19920;-48
2021/07/31 05:40:01;;;;;;;;;;;;;;;15.39;88.78;100466.75;5052810;28;20426;-49
2021/07/31 05:42:28;;;;;;;;;;;;;;;15.34;88.21;100471.66;5051581;28;20362;-50
2021/07/31 05:44:56;;;;;;;;;;;;;;;15.39;88.60;100466.75;5052504;28;19944;-51
2021/07/31 05:47:24;;;;;;;;;;;;;;;15.30;88.93;100472.94;5051574;28;19951;-50
2021/07/31 05:49:51;;;;;;;;;;;;;;;15.21;89.58;100479.88;5035073;28;19928;-48
2021/07/31 05:52:18;;;;;;;;;;;;;;;15.32;89.47;100477.06;5051410;28;20383;-59
2021/07/31 05:54:44;;;;;;;;;;;;;;;15.27;89.36;100473.19;5052508;28;19978;-46
2021/07/31 05:57:11;;;;;;;;;;;;;;;15.35;89.93;100484.78;5051519;28;19921;-59
2021/07/31 05:59:38;;;;;;;;;;;;;;;15.40;89.08;100476.38;5052345;28;19920;-59
2021/07/31 06:02:05;;;;;;;;;;;;;;;15.42;89.34;100481.53;5052318;28;20275;-58
2021/07/31 06:04:32;;;;;;;;;;;;;;;15.23;90.14;100477.94;5052786;28;19952;-58
2021/07/31 06:07:00;;;;;;;;;;;;;;;15.33;90.68;100478.75;5052534;28;19920;-58
2021/07/31 06:09:26;;;;;;;;;;;;;;;15.31;90.10;100474.56;5050745;28;19953;-58
2021/07/31 06:11:53;;;;;;;;;;;;;;;15.31;90.41;100474.56;5052412;28;20332;-58
2021/07/31 06:14:20;;;;;;;;;;;;;;;15.40;89.18;100488.81;5056202;28;19920;-46
2021/07/31 06:16:47;;;;;;;;;;;;;;;15.45;88.82;100484.75;5056059;28;20426;-58
2021/07/31 06:19:13;;;;;;;;;;;;;;;15.51;89.26;100480.72;5056223;28;19921;-49
2021/07/31 06:21:40;;;;;;;;;;;;;;;15.62;88.67;100488.50;5056151;28;20295;-45
2021/07/31 06:24:07;;;;;;;;;;;;;;;15.66;88.87;100481.94;5054893;28;19921;-45
2021/07/31 06:26:34;;;;;;;;;;;;;;;15.68;87.93;100487.94;5055909;28;20594;-46
2021/07/31 06:29:01;;;;;;;;;;;;;;;15.71;88.75;100492.97;5056292;28;19921;-59
2021/07/31 06:31:27;;;;;;;;;;;;;;;15.68;87.71;100481.81;5056190;28;19921;-59
2021/07/31 06:33:54;;;;;;;;;;;;;;;15.73;88.25;100500.75;5054881;28;19970;-59
2021/07/31 06:36:21;;;;;;;;;;;;;;;15.77;87.55;100496.84;5054826;28;19920;-59
2021/07/31 06:38:47;;;;;;;;;;;;;;;15.81;88.43;100508.03;5056158;28;20429;-59
2021/07/31 06:41:14;;;;;;;;;;;;;;;15.78;87.92;100501.19;5055997;28;20418;-59
2021/07/31 06:43:40;;;;;;;;;;;;;;;15.86;88.38;100500.50;5056251;28;19921;-59
2021/07/31 06:46:12;;;;;;;;;;;;;;;15.86;87.77;100511.13;5054595;28;19920;-59
2021/07/31 06:48:39;;;;;;;;;;;;;;;15.94;87.14;100510.38;5054427;28;20441;-59
2021/07/31 06:51:06;;;;;;;;;;;;;;;15.85;87.60;100502.31;5054347;28;19921;-60
2021/07/31 06:53:33;;;;;;;;;;;;;;;15.89;87.44;100510.81;5055584;28;19950;-47
2021/07/31 06:56:00;;;;;;;;;;;;;;;15.89;87.20;100505.53;5055784;28;19921;-46
2021/07/31 06:58:26;;;;;;;;;;;;;;;15.97;86.77;100508.28;5055710;28;20007;-59
2021/07/31 07:00:53;;;;;;;;;;;;;;;16.08;86.50;100515.25;5055382;28;19920;-60
2021/07/31 07:03:20;;;;;;;;;;;;;;;15.98;85.77;100504.66;5037676;28;19960;-59
2021/07/31 07:05:47;;;;;;;;;;;;;;;16.08;85.61;100506.47;5053630;28;19951;-47
2021/07/31 07:08:13;;;;;;;;;;;;;;;16.13;85.83;100507.69;5054925;28;19927;-48
2021/07/31 07:10:40;;;;;;;;;;;;;;;16.14;85.61;100516.47;5055231;28;19920;-46
2021/07/31 07:13:07;;;;;;;;;;;;;;;16.00;85.43;100515.94;5055711;28;20019;-49
2021/07/31 07:15:35;;;;;;;;;;;;;;;15.96;86.61;100513.75;5054179;28;19924;-50
2021/07/31 07:18:01;;;;;;;;;;;;;;;15.97;86.94;100523.38;5055340;28;19920;-48
2021/07/31 07:20:28;;;;;;;;;;;;;;;16.02;86.94;100529.91;5054318;28;20435;-60
2021/07/31 07:22:55;;;;;;;;;;;;;;;15.98;87.04;100536.50;5054670;28;20349;-59
2021/07/31 07:25:22;;;;;;;;;;;;;;;15.99;86.93;100538.16;5053848;28;19959;-59
2021/07/31 07:27:48;;;;;;;;;;;;;;;15.97;87.41;100542.75;5055241;28;19970;-58
2021/07/31 07:30:15;;;;;;;;;;;;;;;15.92;88.09;100542.34;5054012;28;19950;-58
2021/07/31 07:32:41;;;;;;;;;;;;;;;15.98;88.20;100548.91;5055353;28;19921;-58
2021/07/31 07:35:08;;;;;;;;;;;;;;;15.95;88.50;100557.16;5055289;28;19921;-58
2021/07/31 07:37:35;;;;;;;;;;;;;;;15.96;87.98;100551.69;5055262;28;20387;-58
2021/07/31 07:40:04;;;;;;;;;;;;;;;15.99;88.68;100554.09;5055012;28;19920;-57
2021/07/31 07:42:31;;;;;;;;;;;;;;;15.97;88.48;100555.19;5055088;28;20525;-57
2021/07/31 07:44:57;;;;;;;;;;;;;;;15.98;89.55;100556.84;5053622;28;19975;-57
2021/07/31 07:47:24;;;;;;;;;;;;;;;15.84;89.36;100555.47;5037231;28;19924;-57
2021/07/31 07:49:50;;;;;;;;;;;;;;;15.90;88.74;100554.94;5054867;28;19920;-56
2021/07/31 07:52:17;;;;;;;;;;;;;;;15.96;89.53;100554.34;5054871;28;19943;-56
2021/07/31 07:54:44;;;;;;;;;;;;;;;15.93;88.78;100564.41;5054605;28;19951;-57
2021/07/31 07:57:10;;;;;;;;;;;;;;;15.91;89.84;100564.56;5053549;28;19928;-57
2021/07/31 07:59:37;;;;;;;;;;;;;;;15.87;89.47;100566.66;5054874;28;19921;-57
2021/07/31 08:02:04;;;;;;;;;;;;;;;15.88;90.60;100572.78;5053136;28;19951;-57
2021/07/31 08:04:34;;;;;;;;;;;;;;;16.08;88.67;100572.78;5054525;28;19956;-47
2021/07/31 08:07:00;;;;;;;;;;;;;;;16.11;90.26;100575.97;5054585;28;19921;-44
2021/07/31 08:09:27;;;;;;;;;;;;;;;16.06;88.93;100583.53;5054197;28;19970;-47
2021/07/31 08:11:54;;;;;;;;;;;;;;;16.12;89.68;100584.78;5054355;28;19955;-49
2021/07/31 08:14:20;;;;;;;;;;;;;;;16.09;89.39;100587.69;5054154;28;19955;-45
2021/07/31 08:16:47;;;;;;;;;;;;;;;16.03;89.54;100589.09;5054166;28;20306;-50
2021/07/31 08:19:14;;;;;;;;;;;;;;;16.07;88.72;100589.66;5054113;28;19927;-48
2021/07/31 08:21:40;;;;;;;;;;;;;;;16.01;89.53;100591.06;5054282;28;19921;-50
2021/07/31 08:24:07;;;;;;;;;;;;;;;15.79;90.20;100584.19;5054094;28;20406;-46
2021/07/31 08:26:34;;;;;;;;;;;;;;;15.94;90.66;100589.94;5054272;28;19921;-59
2021/07/31 08:29:00;;;;;;;;;;;;;;;16.04;91.38;100594.25;5053784;28;20016;-59
2021/07/31 08:31:27;;;;;;;;;;;;;;;16.25;91.82;100584.44;5054168;28;19970;-48
2021/07/31 08:33:54;;;;;;;;;;;;;;;16.45;90.46;100585.25;5054062;28;20334;-47
2021/07/31 08:36:21;;;;;;;;;;;;;;;16.49;90.03;100586.63;5053904;28;20334;-47
2021/07/31 08:38:47;;;;;;;;;;;;;;;16.76;92.47;100577.03;5052688;28;19927;-60
2021/07/31 08:41:14;;;;;;;;;;;;;;;16.95;90.09;100584.09;5053780;28;19920;-57
2021/07/31 08:43:41;;;;;;;;;;;;;;;17.17;89.37;100590.81;5053582;28;19920;-47
2021/07/31 08:46:09;;;;;;;;;;;;;;;17.19;87.62;100575.56;5053343;28;19920;-59
2021/07/31 08:48:35;;;;;;;;;;;;;;;17.35;88.46;100589.00;5052634;28;20376;-47
2021/07/31 08:51:02;;;;;;;;;;;;;;;17.37;86.91;100581.72;5053045;28;19928;-49
2021/07/31 08:53:30;;;;;;;;;;;;;;;17.31;86.66;100577.00;5053178;28;20354;-48
2021/07/31 08:55:57;;;;;;;;;;;;;;;17.34;86.25;100571.41;5059907;28;19940;-50
2021/07/31 08:58:24;;;;;;;;;;;;;;;17.11;83.35;100586.09;5051778;28;19975;-45
2021/07/31 09:00:51;;;;;;;;;;;;;;;17.23;84.85;100583.09;5051471;28;19920;-59
2021/07/31 09:03:18;;;;;;;;;;;;;;;17.28;83.84;100592.44;5052766;28;19959;-59
2021/07/31 09:05:44;;;;;;;;;;;;;;;17.37;84.44;100595.03;5052609;28;19921;-45
2021/07/31 09:08:11;;;;;;;;;;;;;;;17.42;83.38;100599.06;5052704;28;19998;-47
2021/07/31 09:10:41;;;;;;;;;;;;;;;17.33;83.55;100598.13;5052529;28;19925;-53
2021/07/31 09:13:09;;;;;;;;;;;;;;;17.32;83.24;100594.63;5045073;28;20371;-51
2021/07/31 09:15:40;;;;;;;;;;;;;;;17.20;84.17;100601.97;5052680;28;19935;-47
2021/07/31 09:18:19;;;;;;;;;;;;;;;17.23;84.71;100607.00;5052455;28;19956;-50
2021/07/31 09:21:12;;;;;;;;;;;;;;;17.17;84.12;100607.59;5052453;28;19925;-48
2021/07/31 09:23:46;;;;;;;;;;;;;;;17.05;85.38;100614.91;5050919;28;19927;-48
2021/07/31 09:26:14;;;;;;;;;;;;;;;17.14;84.28;100610.56;5044879;28;20011;-46
2021/07/31 09:28:42;;;;;;;;;;;;;;;17.18;84.96;100616.41;5052555;28;20070;-44
2021/07/31 09:31:09;;;;;;;;;;;;;;;17.11;84.79;100624.16;5052435;28;19974;-46
2021/07/31 09:33:39;;;;;;;;;;;;;;;16.86;85.04;100628.25;5052274;28;19927;-45
2021/07/31 09:36:06;;;;;;;;;;;;;;;16.89;86.55;100625.34;5050859;28;19932;-46
2021/07/31 09:38:36;;;;;;;;;;;;;;;16.95;87.52;100635.41;5052300;28;19951;-46
2021/07/31 09:41:23;;;;;;;;;;;;;;;16.92;86.33;100638.34;5051872;28;19921;-47
2021/07/31 09:44:09;;;;;;;;;;;;;;;16.92;87.61;100629.53;5047300;28;19921;-49
2021/07/31 09:46:36;;;;;;;;;;;;;;;16.90;87.62;100635.00;5043060;28;19921;-45
2021/07/31 09:49:03;;;;;;;;;;;;;;;16.89;87.99;100642.13;5050627;28;20002;-47
2021/07/31 09:51:31;;;;;;;;;;;;;;;16.86;87.93;100660.97;5049698;28;19921;-52
2021/07/31 09:53:58;;;;;;;;;;;;;;;16.73;89.15;100658.63;5046745;28;19927;-46
2021/07/31 09:56:24;;;;;;;;;;;;;;;16.77;88.43;100658.34;5051137;28;19921;-45
2021/07/31 09:58:51;;;;;;;;;;;;;;;16.85;90.08;100650.50;5050437;28;20368;-51
2021/07/31 10:01:18;;;;;;;;;;;;;;;16.68;90.49;100660.88;5058815;28;19951;-51
2021/07/31 10:03:45;;;;;;;;;;;;;;;16.70;90.46;100666.03;5064703;28;19921;-48
2021/07/31 10:06:12;;;;;;;;;;;;;;;16.83;90.87;100663.09;5053286;28;19928;-44
2021/07/31 10:08:38;;;;;;;;;;;;;;;16.92;90.23;100664.91;5057115;28;19920;-46
2021/07/31 10:11:05;;;;;;;;;;;;;;;16.91;90.57;100660.56;5051307;28;19928;-57
2021/07/31 10:13:32;;;;;;;;;;;;;;;16.86;89.83;100668.09;5051841;28;19920;-58
2021/07/31 10:15:59;;;;;;;;;;;;;;;17.07;90.10;100662.63;5058880;28;19935;-58
2021/07/31 10:18:27;;;;;;;;;;;;;;;17.27;91.59;100665.16;5051869;28;19921;-49
2021/07/31 10:20:54;;;;;;;;;;;;;;;17.59;92.98;100667.34;5050591;28;19943;-46
2021/07/31 10:23:39;;;;;;;;;;;;;;;17.67;91.78;100667.44;5051960;28;20340;-58
2021/07/31 10:26:06;;;;;;;;;;;;;;;17.63;89.66;100659.91;5051911;28;20433;-58
2021/07/31 10:28:33;;;;;;;;;;;;;;;17.61;87.99;100670.69;5051658;28;19944;-58
2021/07/31 10:31:35;;;;;;;;;;;;;;;17.62;86.72;100660.91;5051249;28;19928;-58
2021/07/31 10:34:02;;;;;;;;;;;;;;;17.56;87.46;100662.31;5000425;28;19969;-60
2021/07/31 10:36:29;;;;;;;;;;;;;;;17.43;86.27;100670.66;5036528;28;20039;-59
2021/07/31 10:38:56;;;;;;;;;;;;;;;17.52;86.87;100660.94;5050297;28;19943;-47
2021/07/31 10:41:42;;;;;;;;;;;;;;;17.45;87.06;100660.75;5051066;28;20099;-48
2021/07/31 10:44:09;;;;;;;;;;;;;;;17.57;89.45;100664.00;5051283;28;19927;-48
2021/07/31 10:46:35;;;;;;;;;;;;;;;17.56;87.95;100672.94;5054762;28;19983;-47
2021/07/31 10:49:31;;;;;;;;;;;;;;;17.49;87.42;100672.75;5047331;28;19928;-47
2021/07/31 10:51:58;;;;;;;;;;;;;;;17.53;88.70;100679.44;5046828;28;19932;-46
2021/07/31 10:54:43;;;;;;;;;;;;;;;17.46;87.71;100682.81;5051640;28;20426;-44
2021/07/31 10:57:22;;;;;;;;;;;;;;;17.36;88.74;100693.53;5051361;28;19921;-46
2021/07/31 11:00:07;;;;;;;;;;;;;;;17.47;87.99;100703.94;5054744;28;19921;-46
2021/07/31 11:02:36;;;;;;;;;;;;;;;17.53;87.51;100710.47;5054770;28;19928;-46
2021/07/31 11:05:03;;;;;;;;;;;;;;;17.58;89.26;100719.69;5057411;28;19925;-58
2021/07/31 11:07:30;;;;;;;;;;;;;;;17.57;89.69;100720.69;5052130;28;19931;-46
2021/07/31 11:10:15;;;;;;;;;;;;;;;17.52;88.39;100720.28;5054904;28;19952;-44
2021/07/31 11:12:44;;;;;;;;;;;;;;;17.44;88.44;100719.34;5037906;28;20303;-57
2021/07/31 11:15:10;;;;;;;;;;;;;;;17.52;88.55;100724.75;5048734;28;19928;-57
2021/07/31 11:17:37;;;;;;;;;;;;;;;17.58;88.10;100732.16;5054933;28;19951;-57
2021/07/31 11:20:24;;;;;;;;;;;;;;;17.33;89.20;100731.84;5052222;28;19963;-57
2021/07/31 11:22:54;;;;;;;;;;;;;;;17.34;88.42;100736.19;5054308;28;19974;-48
2021/07/31 11:25:21;;;;;;;;;;;;;;;17.38;86.59;100726.94;5054597;28;19920;-58
2021/07/31 11:27:55;;;;;;;;;;;;;;;17.34;87.22;100740.66;5054794;28;19991;-57
2021/07/31 11:30:32;;;;;;;;;;;;;;;17.30;87.76;100745.44;5046317;28;19924;-57
2021/07/31 11:33:11;;;;;;;;;;;;;;;17.37;86.25;100737.72;5052422;28;20330;-57
2021/07/31 11:35:38;;;;;;;;;;;;;;;17.40;87.38;100738.25;5054880;28;19963;-58
2021/07/31 11:38:23;;;;;;;;;;;;;;;17.45;85.95;100743.16;5054450;28;20318;-58
2021/07/31 11:40:56;;;;;;;;;;;;;;;17.39;85.95;100743.72;5054627;28;20399;-58
2021/07/31 11:43:23;;;;;;;;;;;;;;;17.30;85.60;100739.28;5053756;28;20303;-58
2021/07/31 11:45:50;;;;;;;;;;;;;;;17.26;87.48;100740.56;5054468;28;19967;-57
2021/07/31 11:48:16;;;;;;;;;;;;;;;17.27;87.69;100737.75;5045104;28;19982;-57
2021/07/31 11:51:02;;;;;;;;;;;;;;;17.39;88.07;100743.72;5054230;28;19921;-57
2021/07/31 11:53:29;;;;;;;;;;;;;;;17.67;88.49;100747.22;5054371;28;19931;-57
2021/07/31 11:56:11;;;;;;;;;;;;;;;17.64;89.48;100747.53;5069702;28;20306;-57
2021/07/31 11:58:40;;;;;;;;;;;;;;;17.74;89.36;100753.59;5054621;28;20280;-58
2021/07/31 12:01:07;;;;;;;;;;;;;;;17.85;87.64;100741.94;5054275;28;19925;-58
2021/07/31 12:03:53;;;;;;;;;;;;;;;17.93;87.88;100743.03;5069670;28;19921;-58
2021/07/31 12:06:32;;;;;;;;;;;;;;;18.21;88.41;100755.28;5054598;28;19928;-58
2021/07/31 12:09:01;;;;;;;;;;;;;;;18.66;89.84;100752.66;5054366;28;20436;-60
2021/07/31 12:11:31;;;;;;;;;;;;;;;18.88;86.76;100767.31;5053360;28;19931;-58
2021/07/31 12:13:58;;;;;;;;;;;;;;;19.15;87.73;100763.66;5054299;28;19925;-58
2021/07/31 12:16:30;;;;;;;;;;;;;;;19.58;84.96;100764.53;5053970;28;20269;-58
2021/07/31 12:18:57;;;;;;;;;;;;;;;20.05;85.70;100763.19;5069436;28;19939;-59
2021/07/31 12:21:27;;;;;;;;;;;;;;;20.18;84.28;100759.19;5053946;28;19924;-59
2021/07/31 12:23:54;;;;;;;;;;;;;;;20.38;82.58;100770.41;5054112;28;19924;-59
2021/07/31 12:26:31;;;;;;;;;;;;;;;20.38;81.05;100771.25;5069485;28;19920;-51
2021/07/31 12:28:57;;;;;;;;;;;;;;;20.29;77.71;100768.72;5052774;28;19928;-48
2021/07/31 12:31:24;;;;;;;;;;;;;;;19.91;77.31;100777.19;5053781;28;19924;-47
2021/07/31 12:33:51;;;;;;;;;;;;;;;19.97;79.01;100770.34;5053993;28;20476;-50
2021/07/31 12:36:18;;;;;;;;;;;;;;;20.24;78.73;100764.72;5053772;28;19920;-51
2021/07/31 12:38:45;;;;;;;;;;;;;;;20.81;78.27;100764.94;5053933;28;20427;-51
2021/07/31 12:41:12;;;;;;;;;;;;;;;20.76;77.87;100760.94;5068892;28;19920;-51